Time;durP1;ratioP1;P1;durP2;ratioP2;P2;SDS_P1;SDS_P2;PMS_P1;PMS_P2;Temp;Humidity;BMP_temperature;BMP_pressure;BME280_temperature;BME280_humidity;BME280_pressure;Samples;Min_cycle;Max_cycle;Signal;HPM_P1;HPM_P2
2021/10/19 00:01:03;;;;;;;3.10;0.85;;;;;;;;;;4981156;28;20030;-87
2021/10/19 00:03:28;;;;;;;1.83;0.90;;;;;;;;;;4992471;28;20041;-87
2021/10/19 00:05:54;;;;;;;2.17;1.00;;;;;;;;;;4992129;28;20492;-87
2021/10/19 00:08:19;;;;;;;1.92;1.00;;;;;;;;;;4991660;28;20022;-87
2021/10/19 00:10:45;;;;;;;2.03;0.80;;;;;;;;;;4991816;28;20039;-87
2021/10/19 00:13:10;;;;;;;2.03;0.90;;;;;;;;;;4984933;28;20037;-87
2021/10/19 00:15:36;;;;;;;4.75;1.17;;;;;;;;;;4980341;28;20100;-87
2021/10/19 00:18:01;;;;;;;3.67;0.98;;;;;;;;;;4990447;28;20045;-87
2021/10/19 00:20:27;;;;;;;2.15;1.10;;;;;;;;;;4992206;28;20034;-87
2021/10/19 00:22:52;;;;;;;2.03;0.85;;;;;;;;;;4991582;28;20484;-87
2021/10/19 00:25:18;;;;;;;2.85;0.80;;;;;;;;;;4992046;28;20481;-87
2021/10/19 00:27:44;;;;;;;1.45;0.70;;;;;;;;;;4991467;28;20030;-88
2021/10/19 00:30:11;;;;;;;2.42;0.88;;;;;;;;;;4989980;28;20026;-87
2021/10/19 00:32:38;;;;;;;0.93;0.60;;;;;;;;;;4989972;28;20031;-87
2021/10/19 00:35:05;;;;;;;3.45;1.70;;;;;;;;;;4991724;28;20105;-87
2021/10/19 00:37:30;;;;;;;4.35;1.10;;;;;;;;;;4990498;28;20126;-87
2021/10/19 00:39:55;;;;;;;2.75;1.10;;;;;;;;;;4991493;28;20109;-87
2021/10/19 00:42:21;;;;;;;1.80;0.90;;;;;;;;;;4991141;28;20105;-87
2021/10/19 00:44:46;;;;;;;1.58;0.70;;;;;;;;;;4991299;28;20038;-87
2021/10/19 00:47:19;;;;;;;1.58;0.90;;;;;;;;;;4987085;28;20034;-87
2021/10/19 00:49:48;;;;;;;6.40;1.00;;;;;;;;;;4989837;28;20378;-88
2021/10/19 00:52:14;;;;;;;1.80;0.90;;;;;;;;;;4988940;28;20077;-88
2021/10/19 00:54:40;;;;;;;1.27;0.70;;;;;;;;;;4989628;28;20390;-87
2021/10/19 00:57:07;;;;;;;3.42;1.10;;;;;;;;;;4989338;28;20037;-87
2021/10/19 00:59:33;;;;;;;1.60;0.95;;;;;;;;;;4989841;28;20037;-87
2021/10/19 01:01:58;;;;;;;1.33;0.80;;;;;;;;;;4987145;28;20035;-87
2021/10/19 01:04:24;;;;;;;2.08;1.08;;;;;;;;;;4990536;28;20109;-87
2021/10/19 01:06:49;;;;;;;2.45;1.00;;;;;;;;;;4990001;28;20027;-87
2021/10/19 01:09:15;;;;;;;1.20;0.80;;;;;;;;;;4991090;28;20031;-87
2021/10/19 01:11:40;;;;;;;1.33;0.98;;;;;;;;;;4991090;28;20120;-87
2021/10/19 01:14:06;;;;;;;1.52;0.95;;;;;;;;;;4990325;28;20399;-88
2021/10/19 01:16:31;;;;;;;1.75;0.88;;;;;;;;;;4991068;28;20026;-87
2021/10/19 01:18:57;;;;;;;1.55;0.88;;;;;;;;;;4991086;28;20038;-87
2021/10/19 01:21:22;;;;;;;4.15;0.93;;;;;;;;;;4990205;28;20031;-87
2021/10/19 01:23:48;;;;;;;2.17;0.93;;;;;;;;;;4987800;28;20038;-87
2021/10/19 01:26:14;;;;;;;3.90;0.75;;;;;;;;;;4985432;28;20050;-88
2021/10/19 01:28:42;;;;;;;3.55;1.30;;;;;;;;;;4983731;28;20030;-87
2021/10/19 01:31:12;;;;;;;1.77;0.85;;;;;;;;;;4987373;28;20038;-87
2021/10/19 01:33:39;;;;;;;1.48;0.80;;;;;;;;;;4995911;28;20037;-87
2021/10/19 01:36:06;;;;;;;0.63;0.50;;;;;;;;;;4995185;28;20085;-87
2021/10/19 01:38:33;;;;;;;1.67;0.70;;;;;;;;;;4990366;28;20042;-87
2021/10/19 01:40:59;;;;;;;0.82;0.60;;;;;;;;;;4989916;28;20113;-87
2021/10/19 01:43:26;;;;;;;1.10;0.68;;;;;;;;;;4990821;28;20065;-88
2021/10/19 01:45:56;;;;;;;1.83;0.80;;;;;;;;;;4988607;28;20062;-88
2021/10/19 01:48:21;;;;;;;2.50;0.80;;;;;;;;;;4988367;28;20026;-86
2021/10/19 01:50:47;;;;;;;2.78;0.80;;;;;;;;;;4990593;28;20112;-88
2021/10/19 01:53:12;;;;;;;0.93;0.77;;;;;;;;;;4989031;28;20081;-87
2021/10/19 01:55:39;;;;;;;1.05;0.75;;;;;;;;;;4990051;28;20038;-87
2021/10/19 01:58:06;;;;;;;1.60;0.80;;;;;;;;;;4990425;28;20386;-87
2021/10/19 02:00:32;;;;;;;1.77;0.95;;;;;;;;;;4989176;28;20699;-87
2021/10/19 02:02:58;;;;;;;1.90;0.90;;;;;;;;;;4988996;28;20113;-87
2021/10/19 02:05:23;;;;;;;1.90;1.02;;;;;;;;;;4989195;28;20173;-87
2021/10/19 02:07:49;;;;;;;2.50;0.80;;;;;;;;;;4989869;28;20401;-87
2021/10/19 02:10:14;;;;;;;2.05;1.13;;;;;;;;;;4990483;28;20043;-87
2021/10/19 02:12:40;;;;;;;2.33;1.02;;;;;;;;;;4989403;28;20497;-87
2021/10/19 02:15:08;;;;;;;2.83;1.00;;;;;;;;;;4992667;28;20081;-87
2021/10/19 02:17:34;;;;;;;2.90;1.00;;;;;;;;;;5007217;28;20076;-87
2021/10/19 02:20:02;;;;;;;1.05;0.70;;;;;;;;;;4993445;28;20042;-87
2021/10/19 02:22:28;;;;;;;2.15;1.02;;;;;;;;;;4991798;28;20473;-87
2021/10/19 02:24:54;;;;;;;1.27;0.82;;;;;;;;;;4992379;28;20073;-87
2021/10/19 02:27:19;;;;;;;2.45;0.75;;;;;;;;;;4992434;28;20030;-87
2021/10/19 02:29:45;;;;;;;2.20;0.80;;;;;;;;;;4993836;28;20037;-87
2021/10/19 02:32:10;;;;;;;1.17;0.63;;;;;;;;;;4991870;28;20037;-87
2021/10/19 02:34:36;;;;;;;1.80;0.90;;;;;;;;;;4994045;28;20121;-87
2021/10/19 02:37:01;;;;;;;1.63;0.70;;;;;;;;;;4993186;28;20396;-87
2021/10/19 02:39:26;;;;;;;1.88;0.90;;;;;;;;;;4992425;28;20469;-87
2021/10/19 02:41:52;;;;;;;1.48;0.70;;;;;;;;;;4992275;28;20026;-87
2021/10/19 02:44:17;;;;;;;1.27;0.70;;;;;;;;;;4992020;28;20032;-87
2021/10/19 02:46:42;;;;;;;1.17;0.68;;;;;;;;;;4993084;28;20489;-87
2021/10/19 02:49:08;;;;;;;1.65;0.60;;;;;;;;;;4992863;28;20076;-87
2021/10/19 02:51:33;;;;;;;1.52;0.90;;;;;;;;;;4993434;28;20042;-86
2021/10/19 02:53:59;;;;;;;2.35;1.02;;;;;;;;;;4993168;28;20030;-87
2021/10/19 02:56:24;;;;;;;1.10;0.70;;;;;;;;;;4992832;28;20022;-88
2021/10/19 02:58:49;;;;;;;4.00;1.10;;;;;;;;;;4991667;28;20034;-88
2021/10/19 03:01:15;;;;;;;1.88;1.00;;;;;;;;;;4992911;28;20034;-87
2021/10/19 03:03:41;;;;;;;1.90;0.80;;;;;;;;;;4995362;28;20085;-87
2021/10/19 03:06:06;;;;;;;3.65;1.00;;;;;;;;;;4977752;28;20037;-87
2021/10/19 03:08:32;;;;;;;3.15;0.95;;;;;;;;;;4992524;28;20033;-87
2021/10/19 03:10:57;;;;;;;3.95;1.30;;;;;;;;;;4993016;28;20032;-87
2021/10/19 03:13:24;;;;;;;1.35;0.73;;;;;;;;;;4993385;28;20440;-87
2021/10/19 03:15:50;;;;;;;1.60;0.70;;;;;;;;;;4993277;28;20027;-87
2021/10/19 03:18:15;;;;;;;0.88;0.70;;;;;;;;;;4993250;28;20461;-87
2021/10/19 03:20:41;;;;;;;0.73;0.55;;;;;;;;;;4988751;28;20031;-87
2021/10/19 03:23:06;;;;;;;1.73;0.82;;;;;;;;;;5007732;28;20077;-87
2021/10/19 03:25:31;;;;;;;1.73;0.80;;;;;;;;;;4992325;28;20397;-87
2021/10/19 03:27:57;;;;;;;1.77;0.82;;;;;;;;;;4992992;28;20113;-87
2021/10/19 03:30:22;;;;;;;1.83;0.90;;;;;;;;;;4990683;28;20038;-87
2021/10/19 03:32:48;;;;;;;1.80;1.00;;;;;;;;;;4993004;28;20483;-87
2021/10/19 03:35:13;;;;;;;0.85;0.60;;;;;;;;;;4991933;28;20038;-87
2021/10/19 03:37:39;;;;;;;1.67;0.80;;;;;;;;;;4992756;28;20501;-87
2021/10/19 03:40:05;;;;;;;3.47;1.00;;;;;;;;;;4992084;28;20027;-87
2021/10/19 03:42:31;;;;;;;2.10;0.95;;;;;;;;;;4992220;28;20034;-87
2021/10/19 03:44:56;;;;;;;1.00;0.68;;;;;;;;;;4992156;28;20034;-87
2021/10/19 03:47:22;;;;;;;1.75;0.73;;;;;;;;;;4992040;28;20038;-87
2021/10/19 03:49:47;;;;;;;1.67;0.88;;;;;;;;;;4992179;28;20035;-87
2021/10/19 03:52:13;;;;;;;1.50;1.00;;;;;;;;;;4987125;28;20032;-87
2021/10/19 03:54:38;;;;;;;1.20;0.80;;;;;;;;;;4990460;28;20533;-87
2021/10/19 03:57:07;;;;;;;1.67;0.85;;;;;;;;;;4992194;28;20035;-87
2021/10/19 03:59:33;;;;;;;1.33;0.93;;;;;;;;;;4991704;28;20511;-88
2021/10/19 04:01:59;;;;;;;0.82;0.70;;;;;;;;;;4990381;28;20038;-87
2021/10/19 04:04:24;;;;;;;2.15;0.75;;;;;;;;;;4974076;28;20023;-87
2021/10/19 04:06:50;;;;;;;1.55;0.88;;;;;;;;;;4975239;28;20417;-87
2021/10/19 04:09:15;;;;;;;2.25;0.98;;;;;;;;;;4990949;28;20076;-87
2021/10/19 04:11:41;;;;;;;3.40;1.02;;;;;;;;;;4979618;28;20034;-87
2021/10/19 04:14:06;;;;;;;1.75;0.95;;;;;;;;;;4991250;28;20445;-87
2021/10/19 04:16:32;;;;;;;2.47;1.00;;;;;;;;;;4991649;28;20022;-87
2021/10/19 04:18:57;;;;;;;0.95;0.75;;;;;;;;;;4990828;28;20136;-87
2021/10/19 04:21:23;;;;;;;1.88;0.93;;;;;;;;;;4975878;28;20042;-87
2021/10/19 04:23:48;;;;;;;1.08;0.70;;;;;;;;;;4991807;28;20033;-87
2021/10/19 04:26:13;;;;;;;1.65;0.85;;;;;;;;;;4991782;28;20374;-88
2021/10/19 04:28:40;;;;;;;0.70;0.57;;;;;;;;;;4987838;28;20378;-87
2021/10/19 04:31:06;;;;;;;0.88;0.70;;;;;;;;;;4986379;28;20042;-87
2021/10/19 04:33:32;;;;;;;1.40;0.60;;;;;;;;;;4991251;28;20494;-87
2021/10/19 04:35:57;;;;;;;0.88;0.70;;;;;;;;;;4986992;28;20157;-86
2021/10/19 04:38:23;;;;;;;1.92;0.90;;;;;;;;;;4991133;28;20034;-87
2021/10/19 04:40:48;;;;;;;2.25;0.90;;;;;;;;;;4991401;28;20026;-87
2021/10/19 04:43:14;;;;;;;2.08;1.02;;;;;;;;;;4991175;28;20135;-87
2021/10/19 04:45:39;;;;;;;1.10;0.82;;;;;;;;;;4989624;28;20460;-87
2021/10/19 04:48:04;;;;;;;1.83;1.10;;;;;;;;;;5006089;28;20047;-87
2021/10/19 04:50:31;;;;;;;1.77;0.95;;;;;;;;;;4990630;28;20034;-86
2021/10/19 04:52:57;;;;;;;2.40;0.98;;;;;;;;;;4985860;28;20041;-88
2021/10/19 04:55:22;;;;;;;1.88;0.80;;;;;;;;;;4992025;28;20034;-87
2021/10/19 04:57:48;;;;;;;2.17;0.77;;;;;;;;;;4995561;28;20034;-86
2021/10/19 05:00:13;;;;;;;1.67;0.82;;;;;;;;;;4990518;28;20074;-86
2021/10/19 05:02:46;;;;;;;1.67;0.80;;;;;;;;;;4978978;28;20041;-87
2021/10/19 05:05:14;;;;;;;1.60;0.80;;;;;;;;;;4990342;28;20061;-87
2021/10/19 05:07:39;;;;;;;1.73;0.70;;;;;;;;;;4986492;28;20097;-87
2021/10/19 05:10:05;;;;;;;1.33;0.80;;;;;;;;;;4989412;28;20034;-86
2021/10/19 05:12:31;;;;;;;3.55;0.90;;;;;;;;;;4976828;28;20097;-86
2021/10/19 05:14:57;;;;;;;1.95;0.98;;;;;;;;;;4971581;28;20038;-87
2021/10/19 05:17:23;;;;;;;1.10;0.80;;;;;;;;;;4975473;28;20401;-86
2021/10/19 05:19:49;;;;;;;2.70;0.77;;;;;;;;;;4976038;28;20336;-87
2021/10/19 05:22:14;;;;;;;1.13;0.70;;;;;;;;;;4976824;28;20084;-87
2021/10/19 05:24:39;;;;;;;1.60;0.77;;;;;;;;;;4974633;28;20069;-86
2021/10/19 05:27:05;;;;;;;1.90;0.90;;;;;;;;;;4990839;28;20389;-87
2021/10/19 05:29:31;;;;;;;2.25;1.10;;;;;;;;;;4990206;28;20646;-87
2021/10/19 05:31:57;;;;;;;1.25;0.88;;;;;;;;;;4987908;28;20034;-87
2021/10/19 05:34:22;;;;;;;1.73;1.00;;;;;;;;;;4980692;28;20037;-86
2021/10/19 05:36:48;;;;;;;1.92;1.25;;;;;;;;;;4994272;28;20045;-87
2021/10/19 05:39:15;;;;;;;5.53;2.30;;;;;;;;;;4979636;28;20440;-87
2021/10/19 05:41:41;;;;;;;4.20;1.88;;;;;;;;;;4974310;28;20030;-88
2021/10/19 05:44:07;;;;;;;3.75;1.65;;;;;;;;;;4976409;28;20039;-88
2021/10/19 05:46:33;;;;;;;1.75;1.10;;;;;;;;;;4987873;28;20023;-87
2021/10/19 05:48:58;;;;;;;1.73;1.13;;;;;;;;;;4991623;28;20045;-88
2021/10/19 05:51:24;;;;;;;2.42;1.33;;;;;;;;;;4993368;28;20117;-88
2021/10/19 05:53:49;;;;;;;2.20;0.90;;;;;;;;;;4978209;28;20670;-87
2021/10/19 05:56:14;;;;;;;1.30;0.80;;;;;;;;;;4993776;28;20022;-88
2021/10/19 05:58:40;;;;;;;4.68;1.00;;;;;;;;;;4991069;28;20114;-87
2021/10/19 06:01:05;;;;;;;2.58;0.93;;;;;;;;;;4991171;28;20026;-87
2021/10/19 06:03:31;;;;;;;4.93;1.15;;;;;;;;;;4995124;28;20018;-87
2021/10/19 06:05:56;;;;;;;1.20;0.80;;;;;;;;;;4991273;28;20286;-87
2021/10/19 06:08:22;;;;;;;1.75;1.05;;;;;;;;;;4990995;28;20117;-87
2021/10/19 06:10:48;;;;;;;1.40;0.73;;;;;;;;;;4990942;28;20073;-87
2021/10/19 06:13:13;;;;;;;2.10;0.82;;;;;;;;;;4992793;28;20042;-87
2021/10/19 06:15:41;;;;;;;1.23;0.80;;;;;;;;;;4992661;28;20500;-87
2021/10/19 06:18:06;;;;;;;1.58;0.90;;;;;;;;;;4992693;28;20034;-88
2021/10/19 06:20:32;;;;;;;2.05;0.70;;;;;;;;;;4991417;28;20065;-86
2021/10/19 06:22:57;;;;;;;1.17;0.80;;;;;;;;;;4989319;28;20019;-87
2021/10/19 06:25:23;;;;;;;2.13;0.68;;;;;;;;;;4988516;28;20027;-87
2021/10/19 06:27:48;;;;;;;1.38;0.80;;;;;;;;;;4987167;28;20152;-87
2021/10/19 06:30:14;;;;;;;1.90;0.80;;;;;;;;;;4988358;28;20088;-86
2021/10/19 06:32:40;;;;;;;3.53;1.10;;;;;;;;;;4987138;28;20039;-87
2021/10/19 06:35:08;;;;;;;4.47;1.20;;;;;;;;;;4991533;28;20052;-86
2021/10/19 06:37:33;;;;;;;6.60;1.40;;;;;;;;;;4992469;28;20049;-87
2021/10/19 06:39:59;;;;;;;1.75;0.90;;;;;;;;;;4984163;28;20034;-86
2021/10/19 06:42:24;;;;;;;5.63;1.50;;;;;;;;;;4986131;28;20033;-86
2021/10/19 06:44:50;;;;;;;1.85;1.20;;;;;;;;;;4993186;28;20396;-87
2021/10/19 06:47:15;;;;;;;3.85;0.80;;;;;;;;;;4990307;28;20417;-86
2021/10/19 06:49:43;;;;;;;3.40;0.80;;;;;;;;;;4989946;28;20022;-86
2021/10/19 06:52:08;;;;;;;2.22;0.70;;;;;;;;;;4991779;28;20499;-86
2021/10/19 06:54:34;;;;;;;1.70;0.70;;;;;;;;;;4991800;28;20058;-85
2021/10/19 06:56:59;;;;;;;1.63;0.70;;;;;;;;;;4992114;28;20029;-87
2021/10/19 06:59:24;;;;;;;3.00;0.85;;;;;;;;;;4986666;28;20085;-87
2021/10/19 07:01:50;;;;;;;4.45;1.27;;;;;;;;;;4982782;28;20026;-87
2021/10/19 07:04:15;;;;;;;3.42;1.20;;;;;;;;;;4990614;28;20030;-87
2021/10/19 07:06:40;;;;;;;4.30;1.83;;;;;;;;;;4989549;28;20069;-90
2021/10/19 07:09:06;;;;;;;6.43;2.63;;;;;;;;;;4992656;28;20038;-87
2021/10/19 07:11:33;;;;;;;10.27;3.60;;;;;;;;;;4991605;28;20509;-87
2021/10/19 07:13:58;;;;;;;9.98;3.05;;;;;;;;;;4982853;28;20038;-87
2021/10/19 07:16:24;;;;;;;8.45;2.67;;;;;;;;;;4992271;28;20026;-87
2021/10/19 07:18:49;;;;;;;8.85;2.22;;;;;;;;;;4992673;28;20031;-87
2021/10/19 07:21:15;;;;;;;3.55;1.50;;;;;;;;;;4988890;28;20034;-88
2021/10/19 07:23:41;;;;;;;4.30;1.40;;;;;;;;;;4991457;28;20030;-87
2021/10/19 07:26:06;;;;;;;3.67;1.30;;;;;;;;;;4991885;28;20034;-87
2021/10/19 07:28:31;;;;;;;3.70;1.35;;;;;;;;;;4990826;28;20030;-87
2021/10/19 07:30:57;;;;;;;3.40;1.30;;;;;;;;;;4988373;28;20531;-87
2021/10/19 07:33:22;;;;;;;2.95;0.90;;;;;;;;;;4988151;28;20038;-87
2021/10/19 07:35:48;;;;;;;4.30;1.20;;;;;;;;;;4992155;28;20026;-87
2021/10/19 07:38:14;;;;;;;1.23;0.90;;;;;;;;;;4981205;28;20469;-86
2021/10/19 07:40:39;;;;;;;1.50;1.00;;;;;;;;;;4990855;28;20038;-86
2021/10/19 07:43:05;;;;;;;2.55;1.20;;;;;;;;;;4990799;28;20402;-87
2021/10/19 07:45:31;;;;;;;5.95;1.27;;;;;;;;;;4992086;28;20038;-86
2021/10/19 07:48:01;;;;;;;2.35;1.27;;;;;;;;;;4992012;28;20157;-86
2021/10/19 07:50:31;;;;;;;2.95;1.02;;;;;;;;;;5002652;28;20539;-87
2021/10/19 07:52:57;;;;;;;1.92;1.20;;;;;;;;;;4980926;28;20035;-87
2021/10/19 07:55:24;;;;;;;3.72;1.10;;;;;;;;;;4981049;28;20026;-87
2021/10/19 07:57:51;;;;;;;1.63;0.85;;;;;;;;;;4990157;28;20022;-88
2021/10/19 08:00:22;;;;;;;3.40;1.02;;;;;;;;;;4989074;28;20031;-87
2021/10/19 08:02:48;;;;;;;1.80;1.00;;;;;;;;;;4981242;28;20064;-87
2021/10/19 08:05:14;;;;;;;1.33;0.80;;;;;;;;;;4985180;28;20026;-87
2021/10/19 08:07:46;;;;;;;3.75;1.10;;;;;;;;;;4980820;28;20057;-87
2021/10/19 08:10:14;;;;;;;2.58;1.20;;;;;;;;;;4989684;28;20027;-87
2021/10/19 08:12:39;;;;;;;3.25;1.25;;;;;;;;;;4991588;28;20064;-88
2021/10/19 08:15:06;;;;;;;3.05;1.30;;;;;;;;;;4973012;28;20454;-88
2021/10/19 08:17:32;;;;;;;3.03;1.20;;;;;;;;;;4978618;28;20468;-88
2021/10/19 08:20:00;;;;;;;5.57;1.65;;;;;;;;;;4980304;28;20077;-88
2021/10/19 08:22:30;;;;;;;2.83;1.23;;;;;;;;;;4991319;28;20477;-87
2021/10/19 08:24:57;;;;;;;1.80;0.90;;;;;;;;;;4991003;28;20484;-87
2021/10/19 08:27:23;;;;;;;2.50;1.00;;;;;;;;;;4980789;28;20422;-88
2021/10/19 08:29:49;;;;;;;2.22;1.17;;;;;;;;;;4987642;28;20477;-88
2021/10/19 08:32:14;;;;;;;2.35;1.10;;;;;;;;;;5006397;28;20045;-87
2021/10/19 08:34:39;;;;;;;2.25;0.95;;;;;;;;;;4996476;28;20097;-87
2021/10/19 08:37:05;;;;;;;2.38;0.93;;;;;;;;;;4990013;28;20050;-87
2021/10/19 08:39:30;;;;;;;3.08;1.20;;;;;;;;;;5006848;28;20508;-88
2021/10/19 08:41:56;;;;;;;1.80;1.35;;;;;;;;;;4991489;28;20440;-87
2021/10/19 08:44:21;;;;;;;2.22;1.05;;;;;;;;;;4982934;28;20027;-88
2021/10/19 08:46:46;;;;;;;4.05;1.08;;;;;;;;;;4972229;28;20027;-88
2021/10/19 08:49:12;;;;;;;3.17;1.00;;;;;;;;;;4983317;28;20488;-88
2021/10/19 08:51:40;;;;;;;5.20;1.17;;;;;;;;;;4984558;28;20685;-88
2021/10/19 08:54:09;;;;;;;2.45;1.00;;;;;;;;;;4972243;28;20692;-87
2021/10/19 08:56:41;;;;;;;3.78;1.20;;;;;;;;;;4972175;28;20141;-88
2021/10/19 08:59:07;;;;;;;3.30;0.90;;;;;;;;;;4977689;28;20030;-91
2021/10/19 09:01:38;;;;;;;2.63;0.80;;;;;;;;;;4991028;28;20600;-88
2021/10/19 09:04:08;;;;;;;1.83;0.80;;;;;;;;;;4990182;28;20091;-88
2021/10/19 09:06:37;;;;;;;3.55;1.00;;;;;;;;;;4989320;28;20037;-88
2021/10/19 09:09:11;;;;;;;1.83;1.00;;;;;;;;;;4980439;28;20029;-88
2021/10/19 09:11:45;;;;;;;1.70;0.77;;;;;;;;;;4991240;28;20026;-88
2021/10/19 09:14:10;;;;;;;;;;;;;;;;;;4995206;28;20121;-87
2021/10/19 09:16:43;;;;;;;4.22;0.98;;;;;;;;;;4990612;28;19976;-88
2021/10/19 09:19:10;;;;;;;1.73;0.63;;;;;;;;;;4989995;28;20026;-88
2021/10/19 09:21:35;;;;;;;1.52;0.70;;;;;;;;;;4990360;28;20022;-88
2021/10/19 09:24:16;;;;;;;4.80;0.73;;;;;;;;;;4998846;28;20030;-88
2021/10/19 09:27:12;;;;;;;1.13;0.50;;;;;;;;;;4978071;28;20034;-87
2021/10/19 09:29:45;;;;;;;4.55;0.70;;;;;;;;;;4968077;28;20039;-88
2021/10/19 09:32:14;;;;;;;1.75;0.60;;;;;;;;;;4969688;28;20049;-88
2021/10/19 09:34:44;;;;;;;3.83;0.70;;;;;;;;;;4985226;28;20089;-88
2021/10/19 09:37:11;;;;;;;4.28;0.60;;;;;;;;;;4971160;28;20493;-88
2021/10/19 09:39:42;;;;;;;1.42;0.40;;;;;;;;;;4986552;28;20057;-88
2021/10/19 09:42:10;;;;;;;1.65;0.60;;;;;;;;;;4990688;28;20049;-89
2021/10/19 09:44:37;;;;;;;3.83;0.70;;;;;;;;;;4979855;28;20481;-88
2021/10/19 09:47:04;;;;;;;0.95;0.60;;;;;;;;;;4980040;28;20072;-88
2021/10/19 09:49:30;;;;;;;2.28;0.70;;;;;;;;;;4979326;28;20035;-88
2021/10/19 09:52:00;;;;;;;1.40;0.85;;;;;;;;;;4971328;28;20034;-88
2021/10/19 09:54:29;;;;;;;2.67;0.90;;;;;;;;;;4972699;28;20033;-88
2021/10/19 09:56:59;;;;;;;2.50;0.90;;;;;;;;;;5003823;28;20143;-88
2021/10/19 09:59:25;;;;;;;2.20;1.05;;;;;;;;;;5003624;28;20601;-88
2021/10/19 10:01:51;;;;;;;1.92;0.73;;;;;;;;;;4974455;28;20394;-87
2021/10/19 10:04:18;;;;;;;1.95;0.93;;;;;;;;;;4988440;28;20031;-88
2021/10/19 10:06:43;;;;;;;1.98;0.80;;;;;;;;;;4986031;28;20033;-88
2021/10/19 10:09:09;;;;;;;3.72;0.90;;;;;;;;;;4981863;28;20023;-88
2021/10/19 10:11:39;;;;;;;0.68;0.50;;;;;;;;;;4975819;28;20037;-88
2021/10/19 10:14:05;;;;;;;1.52;0.50;;;;;;;;;;4969816;28;20089;-87
2021/10/19 10:16:45;;;;;;;1.35;0.50;;;;;;;;;;4974855;28;20427;-87
2021/10/19 10:19:16;;;;;;;0.45;0.30;;;;;;;;;;4990337;28;20030;-87
2021/10/19 10:21:51;;;;;;;0.30;0.30;;;;;;;;;;4984287;28;20051;-88
2021/10/19 10:24:31;;;;;;;0.75;0.40;;;;;;;;;;4983983;28;20525;-87
2021/10/19 10:27:24;;;;;;;2.33;0.70;;;;;;;;;;4988257;28;20528;-87
2021/10/19 10:29:50;;;;;;;0.75;0.50;;;;;;;;;;5004941;28;20033;-87
2021/10/19 10:32:37;;;;;;;0.95;0.50;;;;;;;;;;4989915;28;20397;-87
2021/10/19 10:35:05;;;;;;;0.73;0.40;;;;;;;;;;4994645;28;20026;-88
2021/10/19 10:37:47;;;;;;;1.40;0.40;;;;;;;;;;4979763;28;20134;-87
2021/10/19 10:40:25;;;;;;;2.78;0.60;;;;;;;;;;4999242;28;20026;-86
2021/10/19 10:42:50;;;;;;;2.08;0.75;;;;;;;;;;4993735;28;20034;-88
2021/10/19 10:45:21;;;;;;;1.05;0.50;;;;;;;;;;4992564;28;20029;-88
2021/10/19 10:47:53;;;;;;;1.05;0.57;;;;;;;;;;4993995;28;20026;-88
2021/10/19 10:50:19;;;;;;;1.10;0.45;;;;;;;;;;4990293;28;20038;-88
2021/10/19 10:52:58;;;;;;;3.28;0.70;;;;;;;;;;4975978;28;20681;-88
2021/10/19 10:55:24;;;;;;;0.75;0.40;;;;;;;;;;4990849;28;20483;-88
2021/10/19 10:57:49;;;;;;;2.00;0.50;;;;;;;;;;4993692;28;20046;-89
2021/10/19 11:00:21;;;;;;;4.55;0.65;;;;;;;;;;4987807;28;20058;-88
2021/10/19 11:02:47;;;;;;;4.53;0.70;;;;;;;;;;4992517;28;20117;-89
2021/10/19 11:05:15;;;;;;;3.65;0.90;;;;;;;;;;4993518;28;20177;-87
2021/10/19 11:07:42;;;;;;;1.58;0.43;;;;;;;;;;4989478;28;20093;-87
2021/10/19 11:10:14;;;;;;;2.00;0.60;;;;;;;;;;4976013;28;20090;-88
2021/10/19 11:12:42;;;;;;;4.22;0.68;;;;;;;;;;4991834;28;20022;-87
2021/10/19 11:15:17;;;;;;;1.08;0.50;;;;;;;;;;4991914;28;20715;-87
2021/10/19 11:18:02;;;;;;;2.55;0.50;;;;;;;;;;4978969;28;20054;-88
2021/10/19 11:20:28;;;;;;;0.60;0.40;;;;;;;;;;4975995;28;20162;-88
2021/10/19 11:22:54;;;;;;;1.52;0.43;;;;;;;;;;4991561;28;20105;-87
2021/10/19 11:25:21;;;;;;;1.10;0.30;;;;;;;;;;4982740;28;20401;-86
2021/10/19 11:27:48;;;;;;;1.35;0.30;;;;;;;;;;4974910;28;20026;-88
2021/10/19 11:30:14;;;;;;;1.48;0.40;;;;;;;;;;4982338;28;20031;-87
2021/10/19 11:32:39;;;;;;;1.95;0.40;;;;;;;;;;4989603;28;20097;-87
2021/10/19 11:35:06;;;;;;;1.08;0.30;;;;;;;;;;4985246;28;20104;-87
2021/10/19 11:37:32;;;;;;;0.20;0.20;;;;;;;;;;4987742;28;20038;-87
2021/10/19 11:40:14;;;;;;;0.50;0.20;;;;;;;;;;4973362;28;20093;-87
2021/10/19 11:42:47;;;;;;;1.90;0.38;;;;;;;;;;4973335;28;20065;-88
2021/10/19 11:45:17;;;;;;;0.85;0.30;;;;;;;;;;4983377;28;20523;-88
2021/10/19 11:47:51;;;;;;;0.82;0.20;;;;;;;;;;4992274;28;20034;-87
2021/10/19 11:50:21;;;;;;;1.05;0.30;;;;;;;;;;4992395;28;20610;-88
2021/10/19 11:52:47;;;;;;;2.63;0.30;;;;;;;;;;4987683;28;20035;-87
2021/10/19 11:55:13;;;;;;;1.75;0.40;;;;;;;;;;4988359;28;20057;-88
2021/10/19 11:57:38;;;;;;;0.40;0.30;;;;;;;;;;4991038;28;20410;-87
2021/10/19 12:00:09;;;;;;;0.40;0.30;;;;;;;;;;4981890;28;20041;-87
2021/10/19 12:02:35;;;;;;;0.88;0.30;;;;;;;;;;4973974;28;20030;-88
2021/10/19 12:05:06;;;;;;;1.55;0.50;;;;;;;;;;4990064;28;20033;-87
2021/10/19 12:07:31;;;;;;;1.70;0.50;;;;;;;;;;4990624;28;20031;-88
2021/10/19 12:10:08;;;;;;;1.38;0.40;;;;;;;;;;4987697;28;20031;-88
2021/10/19 12:12:34;;;;;;;1.38;0.40;;;;;;;;;;4992010;28;20551;-87
2021/10/19 12:14:59;;;;;;;1.13;0.40;;;;;;;;;;5007210;28;20030;-88
2021/10/19 12:17:24;;;;;;;2.55;0.60;;;;;;;;;;4984772;28;20109;-87
2021/10/19 12:19:55;;;;;;;2.53;0.70;;;;;;;;;;4990250;28;20389;-88
2021/10/19 12:22:20;;;;;;;2.70;0.60;;;;;;;;;;4990846;28;20109;-88
2021/10/19 12:24:47;;;;;;;2.63;0.63;;;;;;;;;;4988800;28;20030;-87
2021/10/19 12:27:15;;;;;;;3.40;0.77;;;;;;;;;;4971305;28;20138;-87
2021/10/19 12:29:41;;;;;;;2.67;0.60;;;;;;;;;;4978355;28;20030;-87
2021/10/19 12:32:07;;;;;;;2.70;0.50;;;;;;;;;;4987114;28;20037;-87
2021/10/19 12:34:34;;;;;;;3.10;0.68;;;;;;;;;;5000073;28;20062;-88
2021/10/19 12:37:03;;;;;;;2.97;0.80;;;;;;;;;;4990732;28;20055;-87
2021/10/19 12:39:30;;;;;;;1.67;0.60;;;;;;;;;;4976774;28;20022;-87
2021/10/19 12:41:56;;;;;;;2.88;0.50;;;;;;;;;;4991865;28;20025;-87
2021/10/19 12:44:22;;;;;;;1.45;0.70;;;;;;;;;;4987049;28;20485;-87
2021/10/19 12:46:49;;;;;;;1.80;0.60;;;;;;;;;;4982892;28;20030;-87
2021/10/19 12:49:15;;;;;;;0.98;0.47;;;;;;;;;;4990062;28;20056;-88
2021/10/19 12:51:41;;;;;;;1.95;0.50;;;;;;;;;;4979814;28;20063;-88
2021/10/19 12:54:08;;;;;;;1.25;0.50;;;;;;;;;;4987179;28;20109;-88
2021/10/19 12:56:38;;;;;;;2.20;0.60;;;;;;;;;;4989493;28;20050;-87
2021/10/19 12:59:05;;;;;;;1.45;0.50;;;;;;;;;;4990996;28;20045;-88
2021/10/19 13:01:31;;;;;;;2.38;0.55;;;;;;;;;;4991411;28;20548;-88
2021/10/19 13:03:57;;;;;;;2.58;0.55;;;;;;;;;;4991419;28;20114;-87
2021/10/19 13:06:24;;;;;;;2.28;0.50;;;;;;;;;;4991126;28;20101;-87
2021/10/19 13:08:51;;;;;;;1.75;0.50;;;;;;;;;;4989666;28;20030;-87
2021/10/19 13:11:17;;;;;;;1.15;0.32;;;;;;;;;;4981040;28;20031;-89
2021/10/19 13:13:43;;;;;;;1.92;0.43;;;;;;;;;;4970379;28;20030;-90
2021/10/19 13:16:09;;;;;;;2.00;0.45;;;;;;;;;;4971962;28;20059;-89
2021/10/19 13:18:38;;;;;;;3.10;0.60;;;;;;;;;;4973027;28;20062;-88
2021/10/19 13:21:04;;;;;;;1.08;0.50;;;;;;;;;;4974822;28;20494;-88
2021/10/19 13:23:30;;;;;;;1.27;0.60;;;;;;;;;;4978493;28;20038;-88
2021/10/19 13:25:57;;;;;;;1.90;0.60;;;;;;;;;;4990812;28;20029;-89
2021/10/19 13:28:22;;;;;;;1.85;0.50;;;;;;;;;;4989856;28;20053;-88
2021/10/19 13:30:48;;;;;;;0.98;0.45;;;;;;;;;;4991228;28;20405;-89
2021/10/19 13:33:14;;;;;;;2.05;0.50;;;;;;;;;;4981421;28;20503;-90
2021/10/19 13:35:40;;;;;;;3.10;0.68;;;;;;;;;;4976101;28;20039;-89
2021/10/19 13:38:06;;;;;;;1.70;0.43;;;;;;;;;;4988501;28;20034;-87
2021/10/19 13:40:32;;;;;;;2.42;0.52;;;;;;;;;;4990642;28;20117;-89
2021/10/19 13:42:57;;;;;;;2.53;0.50;;;;;;;;;;4979489;28;20049;-89
2021/10/19 13:45:23;;;;;;;1.95;0.43;;;;;;;;;;4972039;28;20037;-89
2021/10/19 13:47:48;;;;;;;2.15;0.55;;;;;;;;;;4986261;28;20129;-88
2021/10/19 13:50:14;;;;;;;1.63;0.45;;;;;;;;;;4982107;28;20039;-88
2021/10/19 13:52:39;;;;;;;1.42;0.40;;;;;;;;;;4981055;28;20037;-88
2021/10/19 13:55:07;;;;;;;1.63;0.50;;;;;;;;;;4989567;28;20200;-88
2021/10/19 13:57:36;;;;;;;1.33;0.40;;;;;;;;;;4988452;28;20030;-88
2021/10/19 14:00:05;;;;;;;1.38;0.60;;;;;;;;;;4988939;28;20236;-87
2021/10/19 14:02:31;;;;;;;2.13;0.57;;;;;;;;;;4978475;28;20077;-88
2021/10/19 14:04:56;;;;;;;3.83;0.60;;;;;;;;;;4976647;28;20034;-88
2021/10/19 14:07:21;;;;;;;1.83;0.60;;;;;;;;;;4972977;28;20408;-88
2021/10/19 14:09:47;;;;;;;3.83;0.73;;;;;;;;;;4985653;28;20165;-88
2021/10/19 14:12:12;;;;;;;4.50;0.75;;;;;;;;;;4992247;28;20401;-89
2021/10/19 14:14:38;;;;;;;3.00;0.77;;;;;;;;;;4994203;28;20384;-88
2021/10/19 14:17:04;;;;;;;2.00;0.80;;;;;;;;;;4994074;28;20034;-89
2021/10/19 14:19:30;;;;;;;6.30;1.10;;;;;;;;;;4985878;28;20477;-89
2021/10/19 14:21:55;;;;;;;1.83;1.45;;;;;;;;;;4989343;28;20042;-88
2021/10/19 14:24:21;;;;;;;2.92;1.20;;;;;;;;;;4992382;28;20034;-88
2021/10/19 14:26:47;;;;;;;4.05;1.40;;;;;;;;;;4975272;28;20279;-88
2021/10/19 14:29:13;;;;;;;2.65;1.40;;;;;;;;;;4974727;28;20027;-88
2021/10/19 14:31:41;;;;;;;6.22;1.80;;;;;;;;;;4982816;28;20019;-90
2021/10/19 14:34:09;;;;;;;4.60;2.33;;;;;;;;;;5001588;28;20052;-91
2021/10/19 14:36:34;;;;;;;3.42;1.55;;;;;;;;;;5013399;28;20515;-91
2021/10/19 14:38:59;;;;;;;4.75;1.58;;;;;;;;;;4993211;28;20027;-89
2021/10/19 14:41:25;;;;;;;4.95;1.80;;;;;;;;;;4989074;28;20022;-89